Menlo Park, California
Current Conditions -  °F | °C
As of 8:50 PM on Wednesday 29 Oct 2014 (Local Time) from KPAO Reporting Station
Clear Clear  
Wind Chill: 63°   Ceiling: Unl
Heat Index: 63°   Visibility: 10mi
Dew Point: 52°   Wind: 0mph
Humidity: 68%   Direction: NA
Pressure: 29.98"   Gusts: NA
Location:  37.45°N, 122.17°W
Report Text: KPAO 300350Z 00000KT 10SM SKC 17/11 A2998
Loading
Personal Weather Stations






























Interactive Weather Map
Tropical Storm Tracking
New forecast layout! Learn more

10-Day Weather Forecast

Advertisements
Track Severe Weather on mobile